Terminal Aerodrome Forecast
Issued by NWS

Home | Current Version | Previous Version | Text Only | Print | Product List | Glossary On
Versions: 1 2 3 4 5 6 7 8 9 10 11 12 13 14 15 16 17 18 19 20
000
FTUS44 KEWX 311200 AAA
TAFSSF
TAF AMD
KSSF 311208Z 3112/0112 14004KT P6SM OVC020
     FM311600 18008KT P6SM SCT035 BKN250
     FM312200 03005KT P6SM SCT060 BKN250 PROB30 3123/0103 VRB25KT
      5SM TSRA BKN035CB
     FM010500 03005KT P6SM BKN035=

USA.gov is the U.S. government's official web portal to all federal, state and local government web resources and services.